»·PEaware :: DCM206 KSNA-KLAS

DCM206 :: KSNA-KLAS

FLIGHT INFORMATION

Flight Status: Arrived
Operator:
DotCom
More flights by this operator :: More flights under this callsign
Pilot: Nick L. (7253)
Aircraft: Unknown
(B38M)
More flights by this aircraft type
Origin: KSNA John Wayne-Orange Co
United States
Destination: KLAS Harry Reid Intl
United States
More flights between these airports :: More routes between these airports
Route: FINZZ3 MISEN RNDRZ1
File this flight plan on PilotEdge
Remarks: RMK / SIMBRIEF
Altitude:
(Current/Filed)
37,000ft
Speed:
(Current/Filed)
450kts
Departed: 25-Feb-21 03:15 PM
Arrived: 25-Feb-21 04:00 PM
Distance/Time
Traveled:
196nm/0:45
Distance/Time
To Go:
Arrived

Flight Plot

Page will automatically refresh every two minutes.

Flight plan parsing failed; only flown route is shown


Map Options




Map Legend


Flown Route
Filed Route
Departure Airport
Arrival Airport
Navaid (VOR, NDB)
Fix

Horizontal Profiles

Position Reports

Time Latitude Longitude Heading Altitude Ground
Speed
25-Feb-21 14:57 33.672445 -117.866852 210 64ft 0kts
25-Feb-21 14:58 33.672445 -117.866852 210 64ft 0kts
25-Feb-21 14:59 33.672445 -117.866852 210 64ft 0kts
25-Feb-21 15:00 33.672445 -117.866852 210 64ft 0kts
25-Feb-21 15:01 33.672445 -117.866852 210 64ft 0kts
25-Feb-21 15:02 33.672445 -117.866852 210 64ft 0kts
25-Feb-21 15:03 33.672445 -117.866852 210 64ft 0kts
25-Feb-21 15:04 33.672445 -117.866852 210 64ft 0kts
25-Feb-21 15:05 33.672445 -117.866852 210 64ft 0kts
25-Feb-21 15:06 33.672445 -117.866852 210 64ft 0kts
25-Feb-21 15:07 33.672445 -117.866852 210 64ft 0kts
25-Feb-21 15:08 33.672444 -117.866852 210 64ft 0kts
25-Feb-21 15:09 33.672444 -117.866852 210 64ft 0kts
25-Feb-21 15:10 33.672306 -117.866984 236 64ft 1kts
25-Feb-21 15:11 33.674212 -117.866411 27 64ft 19kts
25-Feb-21 15:12 33.679819 -117.862855 27 64ft 12kts
25-Feb-21 15:13 33.681483 -117.865033 277 64ft 6kts
25-Feb-21 15:14 33.658337 -117.878425 190 1229ft 157kts
25-Feb-21 15:15 33.615202 -117.889413 196 3774ft 184kts
25-Feb-21 15:16 33.558690 -117.913746 219 6365ft 244kts
25-Feb-21 15:17 33.509386 -117.972254 245 9889ft 259kts
25-Feb-21 15:18 33.525486 -118.061509 312 11803ft 326kts
25-Feb-21 15:19 33.605924 -118.107784 0 15476ft 348kts
25-Feb-21 15:20 33.698866 -118.066519 23 19036ft 372kts
25-Feb-21 15:21 33.793816 -118.011110 23 22218ft 390kts
25-Feb-21 15:22 33.893170 -117.952999 23 25041ft 407kts
25-Feb-21 15:23 33.987051 -117.872242 34 27556ft 426kts
25-Feb-21 15:24 34.082659 -117.783610 38 29840ft 442kts
25-Feb-21 15:25 34.162523 -117.669835 48 32435ft 446kts
25-Feb-21 15:26 34.240096 -117.554328 47 34967ft 440kts
25-Feb-21 15:27 34.316435 -117.440421 47 37096ft 437kts
25-Feb-21 15:28 34.394311 -117.323922 48 37234ft 448kts
25-Feb-21 15:29 34.472408 -117.206661 48 37246ft 448kts
25-Feb-21 15:30 34.550419 -117.089369 47 37246ft 448kts
25-Feb-21 15:31 34.630211 -116.973135 47 37246ft 448kts
25-Feb-21 15:32 34.709761 -116.857036 46 37246ft 448kts
25-Feb-21 15:33 34.789232 -116.740622 46 37246ft 448kts
25-Feb-21 15:34 34.871826 -116.628310 36 37254ft 444kts
25-Feb-21 15:35 34.969326 -116.533451 34 37245ft 459kts
25-Feb-21 15:36 35.069046 -116.436641 34 37240ft 461kts
25-Feb-21 15:37 35.161297 -116.328794 43 36447ft 460kts
25-Feb-21 15:38 35.247873 -116.215228 44 32453ft 463kts
25-Feb-21 15:39 35.333416 -116.097614 44 28252ft 463kts
25-Feb-21 15:40 35.420979 -115.977067 45 25100ft 476kts
25-Feb-21 15:41 35.504646 -115.861422 45 22218ft 442kts
25-Feb-21 15:42 35.585687 -115.749167 45 19452ft 420kts
25-Feb-21 15:43 35.653409 -115.657141 43 19245ft 327kts
25-Feb-21 15:44 35.714899 -115.574183 44 18781ft 327kts
25-Feb-21 15:45 35.788153 -115.513277 26 16860ft 317kts
25-Feb-21 15:46 35.863174 -115.460912 26 15267ft 305kts
25-Feb-21 15:47 35.935716 -115.410269 26 13748ft 295kts
25-Feb-21 15:48 35.999432 -115.349164 58 12091ft 300kts
25-Feb-21 15:49 36.010019 -115.248229 91 10677ft 296kts
25-Feb-21 15:50 36.004572 -115.149609 91 9559ft 278kts
25-Feb-21 15:51 35.999524 -115.060795 90 8524ft 245kts
25-Feb-21 15:52 35.998594 -114.980598 87 7537ft 230kts
25-Feb-21 15:53 35.997698 -114.907334 55 7013ft 189kts
25-Feb-21 15:54 36.044142 -114.900310 339 6938ft 189kts
25-Feb-21 15:55 36.070733 -114.956030 278 5439ft 213kts
25-Feb-21 15:56 36.073530 -115.025625 274 3846ft 195kts
25-Feb-21 15:57 36.073535 -115.085424 274 2857ft 150kts
25-Feb-21 15:58 36.073664 -115.135256 274 2187ft 134kts
25-Feb-21 15:59 36.074720 -115.155022 307 2186ft 27kts

Navigation Log

Ident Type
Flight plan parsing failed, navigation log unavailable